Deane, Kentucky
Current Conditions -  °F | °C
As of 5:55 AM on Wednesday 26 Nov 2014 (Local Time) from KLNP Reporting Station
Light Snow Light Snow  
Wind Chill:   Ceiling: 2900
Heat Index:   Visibility: 7mi
Dew Point: -2°   Wind: 5mph
Humidity: 75%   Direction: 270°W
Pressure: 29.99"   Gusts: NA
Location:  37.24°N, 82.78°W
Report Text: KLNP 261055Z AUTO 27004KT 7SM -SN SCT021 BKN029 OVC035 02/M02 A2999 RMK AO2
Loading
Personal Weather Stations






























Interactive Weather Map New forecast layout! Learn more

10-Day Weather Forecast

Advertisements
Track Severe Weather on mobile